Time;durP1;ratioP1;P1;durP2;ratioP2;P2;SDS_P1;SDS_P2;PMS_P1;PMS_P2;Temp;Humidity;BMP_temperature;BMP_pressure;BME280_temperature;BME280_humidity;BME280_pressure;Samples;Min_cycle;Max_cycle;Signal;HPM_P1;HPM_P2
2022/09/25 00:00:41;;;;;;;4.57;1.23;;;8.30;99.90;;;;;;5073333;28;20056;-75
2022/09/25 00:03:08;;;;;;;5.40;2.70;;;8.30;99.90;;;;;;5074538;28;20040;-75
2022/09/25 00:05:35;;;;;;;6.18;3.08;;;8.20;99.90;;;;;;5073334;28;20076;-75
2022/09/25 00:08:02;;;;;;;6.25;3.20;;;8.20;99.90;;;;;;5073053;28;20123;-75
2022/09/25 00:10:29;;;;;;;13.55;2.88;;;8.20;99.90;;;;;;5072971;28;20048;-75
2022/09/25 00:12:55;;;;;;;20.95;4.78;;;8.20;99.90;;;;;;5072749;28;20400;-75
2022/09/25 00:15:21;;;;;;;11.00;3.00;;;8.20;99.90;;;;;;5072906;28;20460;-75
2022/09/25 00:17:47;;;;;;;5.70;2.67;;;8.10;99.90;;;;;;5056200;28;20040;-75
2022/09/25 00:20:17;;;;;;;6.32;3.53;;;8.10;99.90;;;;;;5072747;28;20048;-75
2022/09/25 00:22:43;;;;;;;7.82;2.53;;;8.10;99.90;;;;;;5074313;28;20033;-75
2022/09/25 00:25:14;;;;;;;7.40;2.88;;;8.00;99.90;;;;;;5072778;28;20127;-75
2022/09/25 00:27:41;;;;;;;12.10;4.18;;;8.00;99.90;;;;;;5074329;28;20095;-75
2022/09/25 00:30:09;;;;;;;438.30;34.38;;;8.00;99.90;;;;;;5071216;28;20381;-75
2022/09/25 00:32:36;;;;;;;20.60;4.28;;;8.00;99.90;;;;;;5072674;28;20040;-75
2022/09/25 00:35:02;;;;;;;5.95;2.55;;;8.00;99.90;;;;;;5074050;28;20090;-76
2022/09/25 00:37:28;;;;;;;36.72;5.90;;;8.00;99.90;;;;;;5055985;28;20037;-76
2022/09/25 00:39:55;;;;;;;43.75;7.03;;;8.00;99.90;;;;;;5072591;28;20041;-75
2022/09/25 00:42:22;;;;;;;48.80;5.65;;;8.00;99.90;;;;;;5071836;28;20047;-76
2022/09/25 00:44:56;;;;;;;18.05;2.63;;;8.00;99.90;;;;;;5072669;28;20127;-76
2022/09/25 00:47:31;;;;;;;3.45;1.73;;;8.00;99.90;;;;;;5072219;28;20525;-76
2022/09/25 00:49:58;;;;;;;220.02;15.00;;;8.00;99.90;;;;;;5073461;28;20047;-76
2022/09/25 00:52:25;;;;;;;37.55;5.15;;;7.90;99.90;;;;;;5072102;28;20045;-76
2022/09/25 00:55:02;;;;;;;47.28;5.93;;;7.90;99.90;;;;;;5072227;28;20044;-76
2022/09/25 00:57:32;;;;;;;48.80;6.18;;;7.90;99.90;;;;;;5072088;28;20468;-77
2022/09/25 01:00:04;;;;;;;8.00;2.95;;;7.80;99.90;;;;;;5070505;28;20041;-76
2022/09/25 01:02:34;;;;;;;50.75;7.90;;;7.80;99.90;;;;;;5073184;28;20476;-76
2022/09/25 01:05:06;;;;;;;14.27;3.88;;;7.80;99.90;;;;;;5071797;28;20052;-76
2022/09/25 01:07:35;;;;;;;7.85;3.47;;;7.70;99.90;;;;;;5055351;28;20419;-76
2022/09/25 01:10:02;;;;;;;7.97;2.83;;;7.70;99.90;;;;;;5055337;28;20042;-76
2022/09/25 01:12:28;;;;;;;12.88;4.72;;;7.70;99.90;;;;;;5072942;28;20070;-78
2022/09/25 01:14:56;;;;;;;13.50;4.10;;;7.70;99.90;;;;;;5078129;28;20049;-78
2022/09/25 01:17:32;;;;;;;44.42;7.45;;;7.70;99.90;;;;;;5076641;28;20041;-78
2022/09/25 01:19:57;;;;;;;9.77;4.45;;;7.70;99.90;;;;;;5076879;28;20441;-78
2022/09/25 01:22:32;;;;;;;45.95;8.55;;;7.60;99.90;;;;;;5076869;28;20109;-78
2022/09/25 01:25:28;;;;;;;8.23;3.08;;;7.60;99.90;;;;;;5076635;28;20040;-78
2022/09/25 01:28:16;;;;;;;311.58;23.05;;;7.60;99.90;;;;;;5061089;28;20412;-77
2022/09/25 01:30:49;;;;;;;240.90;21.50;;;7.60;99.90;;;;;;5059399;28;20040;-79
2022/09/25 01:33:27;;;;;;;5.40;2.80;;;7.60;99.90;;;;;;5056439;28;20119;-79
2022/09/25 01:36:00;;;;;;;5.93;2.70;;;7.50;99.90;;;;;;5056515;28;20390;-78
2022/09/25 01:38:34;;;;;;;7.43;3.30;;;7.50;99.90;;;;;;5056995;28;20052;-78
2022/09/25 01:41:12;;;;;;;4.20;2.33;;;7.50;99.90;;;;;;5039575;28;20041;-78
2022/09/25 01:44:08;;;;;;;5.38;2.80;;;7.60;99.90;;;;;;5056810;28;20180;-78
2022/09/25 01:46:42;;;;;;;5.53;3.17;;;7.60;99.90;;;;;;5057925;28;20048;-79
2022/09/25 01:49:18;;;;;;;11.93;3.92;;;7.60;99.90;;;;;;5039579;28;20049;-79
2022/09/25 01:51:53;;;;;;;32.42;4.45;;;7.60;99.90;;;;;;5056543;28;20048;-79
2022/09/25 01:54:44;;;;;;;401.08;20.42;;;7.60;99.90;;;;;;5059069;28;20041;-79
2022/09/25 01:57:19;;;;;;;57.75;5.65;;;7.70;99.90;;;;;;5076704;28;20052;-79
2022/09/25 01:59:52;;;;;;;44.03;5.43;;;7.60;99.90;;;;;;5058612;28;20179;-80
2022/09/25 02:02:23;;;;;;;29.48;4.82;;;7.60;99.90;;;;;;5060131;28;20060;-80
2022/09/25 02:05:01;;;;;;;19.27;3.10;;;7.50;99.90;;;;;;5060067;28;20041;-80
2022/09/25 02:07:34;;;;;;;23.60;4.43;;;7.50;99.90;;;;;;5061365;28;20128;-80
2022/09/25 02:10:08;;;;;;;11.23;3.00;;;7.50;99.90;;;;;;5061840;28;20041;-80
2022/09/25 02:12:42;;;;;;;86.15;7.28;;;7.50;99.90;;;;;;5061273;28;20053;-80
2022/09/25 02:15:15;;;;;;;3.22;1.92;;;7.50;99.90;;;;;;5059725;28;20041;-79
2022/09/25 02:20:40;;;;;;;5.53;2.83;;;7.50;99.90;;;;;;5059961;28;20481;-80
2022/09/25 02:23:26;;;;;;;5.85;2.70;;;7.60;99.90;;;;;;5059466;28;20067;-80
2022/09/25 02:25:55;;;;;;;6.68;2.83;;;7.70;99.90;;;;;;5060882;28;20090;-79
2022/09/25 02:28:22;;;;;;;7.00;3.30;;;7.80;99.90;;;;;;5059339;28;20947;-79
2022/09/25 02:30:50;;;;;;;5.30;2.80;;;7.80;99.90;;;;;;5059926;28;20041;-80
2022/09/25 02:33:16;;;;;;;8.40;3.22;;;7.90;99.90;;;;;;5059575;28;20079;-80
2022/09/25 02:35:42;;;;;;;7.72;3.53;;;7.90;99.90;;;;;;5059533;28;20037;-80
2022/09/25 02:38:08;;;;;;;14.27;4.05;;;8.00;99.90;;;;;;5060545;28;20041;-79
2022/09/25 02:40:41;;;;;;;13.07;4.82;;;8.00;99.90;;;;;;5060753;28;20033;-79
2022/09/25 02:43:23;;;;;;;15.18;5.10;;;8.10;99.90;;;;;;5042532;28;20051;-77
2022/09/25 02:45:59;;;;;;;15.52;4.78;;;8.40;99.90;;;;;;5057898;28;20118;-75
2022/09/25 02:48:37;;;;;;;17.63;5.70;;;8.70;99.90;;;;;;5040514;28;20144;-73
2022/09/25 02:51:09;;;;;;;14.32;4.63;;;9.00;99.90;;;;;;5056296;28;20507;-70
2022/09/25 02:53:48;;;;;;;12.05;4.05;;;9.10;99.90;;;;;;5056739;28;20041;-70
2022/09/25 02:56:26;;;;;;;10.68;4.80;;;9.20;99.90;;;;;;5057212;28;20047;-70
2022/09/25 02:58:56;;;;;;;12.57;4.90;;;9.20;99.90;;;;;;5051697;28;20519;-71
2022/09/25 03:01:25;;;;;;;19.67;5.13;;;9.30;99.90;;;;;;5053814;28;20526;-70
2022/09/25 03:03:55;;;;;;;111.20;10.48;;;9.20;99.90;;;;;;5053692;28;20512;-70
2022/09/25 03:06:22;;;;;;;23.33;4.70;;;9.20;99.90;;;;;;5055041;28;20052;-70
2022/09/25 03:08:51;;;;;;;10.77;4.07;;;9.20;99.90;;;;;;5053678;28;20048;-70
2022/09/25 03:11:21;;;;;;;11.35;3.60;;;9.10;99.90;;;;;;5054911;28;20051;-70
2022/09/25 03:13:59;;;;;;;9.57;3.53;;;9.10;99.90;;;;;;5054730;28;20553;-70
2022/09/25 03:16:31;;;;;;;9.70;2.78;;;9.00;99.90;;;;;;5053850;28;20045;-71
2022/09/25 03:18:58;;;;;;;10.93;2.78;;;9.00;99.90;;;;;;5036882;28;20045;-70
2022/09/25 03:21:23;;;;;;;20.00;3.10;;;8.90;99.90;;;;;;5053506;28;20520;-70
2022/09/25 03:23:49;;;;;;;27.08;3.15;;;8.90;99.90;;;;;;5053604;28;20124;-71
2022/09/25 03:26:15;;;;;;;378.50;22.92;;;8.80;99.90;;;;;;5053310;28;20045;-71
2022/09/25 03:28:41;;;;;;;18.13;2.05;;;8.70;99.90;;;;;;5051116;28;20053;-71
2022/09/25 03:31:09;;;;;;;220.35;13.55;;;8.70;99.90;;;;;;5054772;28;20040;-71
2022/09/25 03:33:38;;;;;;;6.85;1.73;;;8.60;99.90;;;;;;5036652;28;20041;-71
2022/09/25 03:36:09;;;;;;;356.67;22.85;;;8.50;99.90;;;;;;5054483;28;20469;-71
2022/09/25 03:38:36;;;;;;;181.68;11.18;;;8.40;99.90;;;;;;5054420;28;20043;-71
2022/09/25 03:41:03;;;;;;;6.85;1.30;;;8.30;99.90;;;;;;5054346;28;20033;-71
2022/09/25 03:43:31;;;;;;;42.97;3.35;;;8.30;99.90;;;;;;5053275;28;20101;-71
2022/09/25 03:45:57;;;;;;;81.65;6.82;;;8.20;99.90;;;;;;5054442;28;20036;-71
2022/09/25 03:48:23;;;;;;;6.07;1.67;;;8.20;99.90;;;;;;5052992;28;20512;-71
2022/09/25 03:50:49;;;;;;;5.22;2.28;;;8.10;99.90;;;;;;5036451;28;20174;-71
2022/09/25 03:53:17;;;;;;;11.10;3.65;;;8.10;99.90;;;;;;5054177;28;20474;-71
2022/09/25 03:55:46;;;;;;;7.55;3.30;;;8.20;99.90;;;;;;5053928;28;20087;-71
2022/09/25 03:58:13;;;;;;;10.10;3.88;;;8.30;99.90;;;;;;5050853;28;20045;-68
2022/09/25 04:00:40;;;;;;;10.30;3.45;;;8.40;99.90;;;;;;5052721;28;20045;-71
2022/09/25 04:03:05;;;;;;;16.33;4.10;;;8.60;99.90;;;;;;5052695;28;20099;-71
2022/09/25 04:05:31;;;;;;;7.72;3.67;;;8.80;99.90;;;;;;5052591;28;20053;-70
2022/09/25 04:07:57;;;;;;;10.00;3.22;;;8.90;99.90;;;;;;5052691;28;20045;-70
2022/09/25 04:10:23;;;;;;;9.55;3.03;;;9.00;99.90;;;;;;5053666;28;20037;-70
2022/09/25 04:12:54;;;;;;;6.15;3.05;;;9.10;99.90;;;;;;5053545;28;20059;-69
2022/09/25 04:15:23;;;;;;;9.00;3.47;;;9.20;99.90;;;;;;5051909;28;20048;-70
2022/09/25 04:17:52;;;;;;;10.25;2.63;;;9.30;99.90;;;;;;5053601;28;20041;-71
2022/09/25 04:20:19;;;;;;;5.05;2.63;;;9.40;99.90;;;;;;5053518;28;20052;-70
2022/09/25 04:22:44;;;;;;;8.30;2.58;;;9.50;99.90;;;;;;5052448;28;20060;-70
2022/09/25 04:25:11;;;;;;;4.53;2.22;;;9.50;99.90;;;;;;5053511;28;20037;-69
2022/09/25 04:27:37;;;;;;;6.88;2.30;;;9.60;99.90;;;;;;5052267;28;20083;-70
2022/09/25 04:30:04;;;;;;;7.25;2.00;;;9.60;99.90;;;;;;5051277;28;20119;-70
2022/09/25 04:35:14;;;;;;;8.45;2.13;;;9.70;99.90;;;;;;5052016;28;20489;-70
2022/09/25 04:37:40;;;;;;;5.40;2.03;;;9.70;99.90;;;;;;5053289;28;20073;-70
2022/09/25 04:40:06;;;;;;;4.95;1.70;;;9.70;99.90;;;;;;5053465;28;20075;-70
2022/09/25 04:42:35;;;;;;;7.35;1.90;;;9.70;99.90;;;;;;5053447;28;20503;-69
2022/09/25 04:45:01;;;;;;;6.35;1.95;;;9.70;99.90;;;;;;5052149;28;20081;-69
2022/09/25 04:47:28;;;;;;;7.95;2.03;;;9.70;99.90;;;;;;5052004;28;20536;-70
2022/09/25 04:49:55;;;;;;;2.60;1.48;;;9.70;99.90;;;;;;5053076;28;20137;-69
2022/09/25 04:52:21;;;;;;;6.38;2.28;;;9.80;99.90;;;;;;5035097;28;20056;-68
2022/09/25 04:54:47;;;;;;;7.38;2.33;;;9.80;99.90;;;;;;5035495;28;20420;-69
2022/09/25 04:57:18;;;;;;;12.23;2.35;;;9.80;99.90;;;;;;5053153;28;20045;-68
2022/09/25 04:59:44;;;;;;;9.40;2.50;;;9.70;99.90;;;;;;5049829;28;20102;-69
2022/09/25 05:02:11;;;;;;;7.88;2.50;;;9.70;99.90;;;;;;5053016;28;20083;-69
2022/09/25 05:04:37;;;;;;;4.70;2.28;;;9.70;99.90;;;;;;5051544;28;20630;-68
2022/09/25 05:07:04;;;;;;;9.38;1.90;;;9.60;99.90;;;;;;5052933;28;20116;-69
2022/09/25 05:09:30;;;;;;;6.70;1.90;;;9.50;99.90;;;;;;5051687;28;20116;-69
2022/09/25 05:11:56;;;;;;;6.70;2.10;;;9.50;99.90;;;;;;5051344;28;20606;-69
2022/09/25 05:14:22;;;;;;;6.53;2.25;;;9.50;99.90;;;;;;5051755;28;20102;-69
2022/09/25 05:16:49;;;;;;;5.65;2.45;;;9.50;99.90;;;;;;5051790;28;20098;-70
2022/09/25 05:19:15;;;;;;;9.55;2.45;;;9.40;99.90;;;;;;5051663;28;20037;-70
2022/09/25 05:21:41;;;;;;;7.32;2.80;;;9.50;99.90;;;;;;5034957;28;20115;-71
2022/09/25 05:24:08;;;;;;;6.70;2.92;;;9.50;99.90;;;;;;5051478;28;20049;-71
2022/09/25 05:26:35;;;;;;;6.93;2.42;;;9.50;99.90;;;;;;5051697;28;20415;-69
2022/09/25 05:29:01;;;;;;;4.55;2.20;;;9.60;99.90;;;;;;5053325;28;20045;-68
2022/09/25 05:31:27;;;;;;;7.82;2.22;;;9.60;99.90;;;;;;5056814;28;20048;-69
2022/09/25 05:33:54;;;;;;;6.97;2.17;;;9.70;99.90;;;;;;5055416;28;20047;-68
2022/09/25 05:36:19;;;;;;;6.55;2.20;;;9.80;99.90;;;;;;5055371;28;20461;-68
2022/09/25 05:38:45;;;;;;;9.02;2.30;;;9.80;99.90;;;;;;5055398;28;20037;-69
2022/09/25 05:41:12;;;;;;;8.07;2.53;;;9.90;99.90;;;;;;5038457;28;20277;-69
2022/09/25 05:43:45;;;;;;;5.90;2.08;;;10.00;99.90;;;;;;5055543;28;20056;-69
2022/09/25 05:46:11;;;;;;;6.85;2.50;;;10.10;99.90;;;;;;5054469;28;20052;-69
2022/09/25 05:48:37;;;;;;;8.10;2.17;;;10.10;99.90;;;;;;5054212;28;20048;-70
2022/09/25 05:51:03;;;;;;;8.00;2.40;;;10.20;99.90;;;;;;5037467;28;20047;-69
2022/09/25 05:53:29;;;;;;;6.88;1.92;;;10.30;99.90;;;;;;5054179;28;20044;-70
2022/09/25 05:56:01;;;;;;;11.63;3.80;;;10.30;99.90;;;;;;5054389;28;20072;-69
2022/09/25 05:58:28;;;;;;;7.60;2.75;;;10.40;99.90;;;;;;5051893;28;20128;-69
2022/09/25 06:00:58;;;;;;;5.47;3.80;;;10.40;99.90;;;;;;5054184;28;20476;-69
2022/09/25 06:03:28;;;;;;;9.10;3.30;;;10.50;99.90;;;;;;5037229;28;20175;-69
2022/09/25 06:05:58;;;;;;;8.55;6.20;;;10.50;99.90;;;;;;5055368;28;20287;-69
2022/09/25 06:08:25;;;;;;;5.78;4.25;;;10.50;99.90;;;;;;5055259;28;20412;-69
2022/09/25 06:10:55;;;;;;;10.00;7.10;;;10.60;99.90;;;;;;5053731;28;20041;-69
2022/09/25 06:13:24;;;;;;;13.05;8.93;;;10.70;99.90;;;;;;5055004;28;20053;-69
2022/09/25 06:15:51;;;;;;;21.23;16.27;;;10.70;99.90;;;;;;5053878;28;20041;-69
2022/09/25 06:18:22;;;;;;;15.10;10.75;;;10.70;99.90;;;;;;5054774;28;20041;-69
2022/09/25 06:20:48;;;;;;;4.82;2.35;;;10.70;99.90;;;;;;5054895;28;20036;-68
2022/09/25 06:23:14;;;;;;;7.93;1.90;;;10.70;99.90;;;;;;5053497;28;20102;-69
2022/09/25 06:25:40;;;;;;;7.82;3.35;;;10.70;99.90;;;;;;5054694;28;20041;-69
2022/09/25 06:28:06;;;;;;;9.68;4.72;;;10.70;99.90;;;;;;5053470;28;20048;-69
2022/09/25 06:30:34;;;;;;;10.48;4.10;;;10.80;99.90;;;;;;5051859;28;20037;-69
2022/09/25 06:33:03;;;;;;;8.50;2.65;;;10.80;99.90;;;;;;5053478;28;20064;-69
2022/09/25 06:35:29;;;;;;;7.82;2.10;;;10.80;99.90;;;;;;5053437;28;20135;-69
2022/09/25 06:37:59;;;;;;;6.95;1.90;;;10.90;99.90;;;;;;5053331;28;20064;-69
2022/09/25 06:40:28;;;;;;;3.88;2.22;;;10.90;99.90;;;;;;5052358;28;20489;-69
2022/09/25 06:42:57;;;;;;;6.88;2.63;;;11.00;99.90;;;;;;5053373;28;20051;-69
2022/09/25 06:45:24;;;;;;;4.00;2.40;;;11.00;99.90;;;;;;5054324;28;20041;-69
2022/09/25 06:47:49;;;;;;;7.60;1.95;;;11.00;99.90;;;;;;5053005;28;20124;-69
2022/09/25 06:50:15;;;;;;;4.65;2.45;;;11.10;99.90;;;;;;5054433;28;20116;-69
2022/09/25 06:52:43;;;;;;;5.05;2.45;;;11.10;99.90;;;;;;5052920;28;20033;-69
2022/09/25 06:55:09;;;;;;;8.32;1.88;;;11.20;99.90;;;;;;5036196;28;20174;-69
2022/09/25 06:57:36;;;;;;;8.70;2.55;;;11.30;99.90;;;;;;5052809;28;20492;-69
2022/09/25 07:00:04;;;;;;;5.78;2.67;;;11.30;99.90;;;;;;5051833;28;20095;-69
2022/09/25 07:05:17;;;;;;;5.63;2.30;;;11.40;99.90;;;;;;5052603;28;20079;-68
2022/09/25 07:07:44;;;;;;;6.75;2.72;;;11.40;99.90;;;;;;5052812;28;20072;-68
2022/09/25 07:10:10;;;;;;;4.82;2.05;;;11.40;99.90;;;;;;5054045;28;20124;-68
2022/09/25 07:12:40;;;;;;;6.15;1.92;;;11.30;99.90;;;;;;5035734;28;20049;-68
2022/09/25 07:15:07;;;;;;;4.00;1.77;;;11.30;99.90;;;;;;5035982;28;20052;-68
2022/09/25 07:17:33;;;;;;;10.23;2.47;;;11.20;99.90;;;;;;5052718;28;20040;-69
2022/09/25 07:19:59;;;;;;;8.07;2.30;;;11.20;99.90;;;;;;5052442;28;20627;-69
2022/09/25 07:22:25;;;;;;;6.57;2.80;;;11.20;99.90;;;;;;5052598;28;20040;-69
2022/09/25 07:24:51;;;;;;;16.20;8.60;;;11.20;99.90;;;;;;5053419;28;20382;-69
2022/09/25 07:27:17;;;;;;;21.13;13.90;;;11.30;99.90;;;;;;5053339;28;20041;-69
2022/09/25 07:29:43;;;;;;;13.52;8.68;;;11.30;99.90;;;;;;5051002;28;20045;-69
2022/09/25 07:32:10;;;;;;;8.80;4.63;;;11.30;99.90;;;;;;5053141;28;20515;-69
2022/09/25 07:34:36;;;;;;;17.88;13.52;;;11.40;99.90;;;;;;5053096;28;20069;-69
2022/09/25 07:37:02;;;;;;;13.13;9.65;;;11.40;99.90;;;;;;5052931;28;20040;-69
2022/09/25 07:39:28;;;;;;;5.25;3.88;;;11.50;99.90;;;;;;5052751;28;20124;-69
2022/09/25 07:41:54;;;;;;;6.35;3.13;;;11.60;99.90;;;;;;5052797;28;20200;-69
2022/09/25 07:44:20;;;;;;;5.25;2.63;;;11.60;99.90;;;;;;5052692;28;20095;-69
2022/09/25 07:46:46;;;;;;;6.53;3.00;;;11.70;99.90;;;;;;5052676;28;20040;-68
2022/09/25 07:49:12;;;;;;;8.77;2.78;;;11.80;99.90;;;;;;5054020;28;20043;-69
2022/09/25 07:51:38;;;;;;;4.35;1.85;;;11.90;99.90;;;;;;5052714;28;20060;-68
2022/09/25 07:54:04;;;;;;;4.57;2.40;;;12.00;99.90;;;;;;5053972;28;20033;-69
2022/09/25 07:56:33;;;;;;;7.30;2.17;;;12.10;99.90;;;;;;5036282;28;20411;-69
2022/09/25 07:58:59;;;;;;;5.50;2.20;;;12.30;99.90;;;;;;5050652;28;20504;-69
2022/09/25 08:01:24;;;;;;;3.83;2.15;;;12.40;99.90;;;;;;5052655;28;20049;-69
2022/09/25 08:03:50;;;;;;;5.00;2.17;;;12.50;99.90;;;;;;5035788;28;20045;-69
2022/09/25 08:06:16;;;;;;;6.00;2.80;;;12.70;99.90;;;;;;5052435;28;20048;-70
2022/09/25 08:08:43;;;;;;;5.80;1.42;;;13.00;99.90;;;;;;5035639;28;20048;-70
2022/09/25 08:11:14;;;;;;;6.40;1.92;;;13.50;99.90;;;;;;5052208;28;20056;-70
2022/09/25 08:13:41;;;;;;;7.25;1.55;;;13.80;99.90;;;;;;5053300;28;20397;-70
2022/09/25 08:16:10;;;;;;;5.80;1.25;;;14.20;99.90;;;;;;5053529;28;20041;-71
2022/09/25 08:18:40;;;;;;;3.77;1.30;;;14.40;99.90;;;;;;5051994;28;20515;-71
2022/09/25 08:21:06;;;;;;;4.93;1.50;;;14.80;99.90;;;;;;5052410;28;20286;-71
2022/09/25 08:23:32;;;;;;;4.28;1.40;;;15.50;99.90;;;;;;5052543;28;20045;-71
2022/09/25 08:25:58;;;;;;;3.40;1.20;;;16.20;99.90;;;;;;5051990;28;20063;-72
2022/09/25 08:28:24;;;;;;;4.65;1.13;;;16.80;99.90;;;;;;5049785;28;20051;-72
2022/09/25 08:30:50;;;;;;;3.33;1.00;;;17.20;99.90;;;;;;5052101;28;20134;-73
2022/09/25 08:33:16;;;;;;;5.15;0.98;;;17.60;99.90;;;;;;5051917;28;20489;-74
2022/09/25 08:35:43;;;;;;;4.57;1.02;;;18.00;99.90;;;;;;5053110;28;20072;-74
2022/09/25 08:38:11;;;;;;;2.83;1.05;;;18.40;99.90;;;;;;5035274;28;20043;-74
2022/09/25 08:40:52;;;;;;;4.53;0.90;;;18.90;99.90;;;;;;5051772;28;20045;-74
2022/09/25 08:43:22;;;;;;;5.97;1.50;;;19.30;99.90;;;;;;5051758;28;20037;-75
2022/09/25 08:49:01;;;;;;;4.65;0.90;;;20.10;99.90;;;;;;5051979;28;20373;-74
2022/09/25 08:51:29;;;;;;;3.00;0.98;;;20.30;99.90;;;;;;5051915;28;20033;-75
2022/09/25 08:53:55;;;;;;;3.17;0.90;;;20.50;99.90;;;;;;5051736;28;20041;-75
2022/09/25 08:56:23;;;;;;;3.85;0.70;;;20.70;99.90;;;;;;5051995;28;20443;-75
2022/09/25 08:59:00;;;;;;;3.58;1.08;;;20.80;99.90;;;;;;5050940;28;20091;-74
2022/09/25 09:01:35;;;;;;;2.33;0.77;;;20.90;99.90;;;;;;5051676;28;20040;-75
2022/09/25 09:04:12;;;;;;;4.45;0.82;;;21.00;99.90;;;;;;5035333;28;20659;-74
2022/09/25 09:06:40;;;;;;;2.35;0.70;;;20.50;99.90;;;;;;5034947;28;20040;-74
2022/09/25 09:09:28;;;;;;;4.30;0.68;;;20.00;99.90;;;;;;5035210;28;20384;-74
2022/09/25 09:12:05;;;;;;;2.80;0.55;;;19.80;99.90;;;;;;5052471;28;20056;-73
2022/09/25 09:14:45;;;;;;;2.78;0.93;;;20.10;99.90;;;;;;5052886;28;20044;-74
2022/09/25 09:17:39;;;;;;;3.70;1.05;;;20.10;99.90;;;;;;5034888;28;20052;-75
2022/09/25 09:20:44;;;;;;;3.45;0.77;;;20.40;99.90;;;;;;5051778;28;20033;-73
2022/09/25 09:23:17;;;;;;;2.65;1.08;;;20.30;99.90;;;;;;5051627;28;20125;-72
2022/09/25 09:25:50;;;;;;;4.68;0.90;;;20.70;99.90;;;;;;5051324;28;20052;-73
2022/09/25 09:28:22;;;;;;;3.35;0.70;;;21.30;99.90;;;;;;5051065;28;20049;-72
2022/09/25 09:31:15;;;;;;;2.25;0.60;;;21.80;99.90;;;;;;5051288;28;20037;-73
2022/09/25 09:33:58;;;;;;;5.20;0.73;;;22.00;99.90;;;;;;5052516;28;20385;-72
2022/09/25 09:36:50;;;;;;;2.95;0.68;;;22.20;99.90;;;;;;5034580;28;20136;-71
2022/09/25 09:39:37;;;;;;;2.75;0.50;;;22.50;99.90;;;;;;5051146;28;20041;-71
2022/09/25 09:42:08;;;;;;;4.97;0.60;;;22.20;99.90;;;;;;5051214;28;20049;-71
2022/09/25 09:45:08;;;;;;;3.50;0.57;;;21.10;99.90;;;;;;5051291;28;20351;-71
2022/09/25 09:47:49;;;;;;;3.13;0.93;;;20.10;99.90;;;;;;5031175;28;20128;-70
2022/09/25 09:50:36;;;;;;;2.85;0.63;;;18.90;99.90;;;;;;5051349;28;20064;-71
2022/09/25 09:53:12;;;;;;;5.10;1.10;;;18.00;99.90;;;;;;5052467;28;20033;-71
2022/09/25 09:55:46;;;;;;;3.28;0.90;;;17.40;99.90;;;;;;5050917;28;20489;-71
2022/09/25 09:58:25;;;;;;;5.18;0.88;;;16.80;99.90;;;;;;5033569;28;20655;-71
2022/09/25 10:00:51;;;;;;;2.25;0.60;;;16.30;99.90;;;;;;5052082;28;20072;-72
2022/09/25 10:03:23;;;;;;;3.95;0.70;;;16.00;99.90;;;;;;5050832;28;20079;-72
2022/09/25 10:05:53;;;;;;;2.40;0.60;;;15.70;99.90;;;;;;5051971;28;20685;-71
2022/09/25 10:08:21;;;;;;;2.90;1.60;;;15.40;99.90;;;;;;5034042;28;20370;-71
2022/09/25 10:10:55;;;;;;;3.67;1.10;;;15.30;99.90;;;;;;5051868;28;20087;-71
2022/09/25 10:13:35;;;;;;;7.32;0.60;;;15.80;99.90;;;;;;5051839;28;20060;-71
2022/09/25 10:16:16;;;;;;;3.83;0.80;;;16.80;99.90;;;;;;5055817;28;20496;-72
2022/09/25 10:18:52;;;;;;;4.50;0.90;;;18.30;99.90;;;;;;5054503;28;20408;-72
2022/09/25 10:21:22;;;;;;;4.63;0.98;;;19.50;99.90;;;;;;5054757;28;20502;-72
2022/09/25 10:23:48;;;;;;;;;;;20.50;99.90;;;;;;5054998;28;20102;-72
2022/09/25 10:26:30;;;;;;;4.90;0.77;;;21.30;99.90;;;;;;5054442;28;20327;-71
2022/09/25 10:28:57;;;;;;;3.80;0.70;;;22.00;99.90;;;;;;5052213;28;20053;-71
2022/09/25 10:31:26;;;;;;;4.78;1.10;;;22.50;99.90;;;;;;5055762;28;20103;-71
2022/09/25 10:34:15;;;;;;;5.72;0.90;;;22.80;99.90;;;;;;5037734;28;20041;-71
2022/09/25 10:36:52;;;;;;;2.03;0.95;;;23.20;99.90;;;;;;5054268;28;20041;-73
2022/09/25 10:39:25;;;;;;;10.30;5.30;;;23.20;99.90;;;;;;5054241;28;20043;-71
2022/09/25 10:41:50;;;;;;;19.13;8.82;;;22.70;99.40;;;;;;5054237;28;20056;-70
2022/09/25 10:44:30;;;;;;;10.05;4.18;;;21.50;99.00;;;;;;5054294;28;20062;-70
2022/09/25 10:52:52;;;;;;;21.42;11.80;;;18.00;99.90;;;;;;5053891;28;20044;-70
2022/09/25 10:55:32;;;;;;;27.15;13.52;;;17.00;99.90;;;;;;5055322;28;20048;-71
2022/09/25 10:58:13;;;;;;;15.63;7.15;;;16.30;99.90;;;;;;5055177;28;20037;-74
2022/09/25 11:00:39;;;;;;;11.43;5.47;;;15.90;99.90;;;;;;5052429;28;20128;-71
2022/09/25 11:03:06;;;;;;;17.27;7.88;;;15.40;99.90;;;;;;5055071;28;20128;-71
2022/09/25 11:05:37;;;;;;;14.48;7.45;;;15.10;99.90;;;;;;5037041;28;20041;-71
2022/09/25 11:08:06;;;;;;;10.95;4.82;;;14.80;99.90;;;;;;5053883;28;20033;-71
2022/09/25 11:10:55;;;;;;;12.40;5.33;;;14.70;99.90;;;;;;5054892;28;20079;-71
2022/09/25 11:13:39;;;;;;;9.07;4.33;;;14.60;99.90;;;;;;5049828;28;20116;-71
2022/09/25 11:16:09;;;;;;;14.85;5.47;;;14.50;99.90;;;;;;5053316;28;20317;-71
2022/09/25 11:18:35;;;;;;;7.35;3.17;;;14.60;99.90;;;;;;5055107;28;20037;-73
2022/09/25 11:21:03;;;;;;;7.43;2.58;;;14.70;99.90;;;;;;5053750;28;20049;-73
2022/09/25 11:23:46;;;;;;;8.27;3.30;;;14.90;99.90;;;;;;5053388;28;20048;-72
2022/09/25 11:26:33;;;;;;;11.23;5.40;;;15.00;99.90;;;;;;5052824;28;20056;-72
2022/09/25 11:29:14;;;;;;;7.72;3.60;;;15.10;99.90;;;;;;5052565;28;20037;-72
2022/09/25 11:32:18;;;;;;;8.48;3.80;;;15.00;99.90;;;;;;5054273;28;20052;-72
2022/09/25 11:35:21;;;;;;;8.65;3.55;;;15.00;99.90;;;;;;5050622;28;20389;-73
2022/09/25 11:37:59;;;;;;;10.60;5.75;;;15.00;99.90;;;;;;5053143;28;20047;-71
2022/09/25 11:43:41;;;;;;;6.95;2.90;;;15.20;99.90;;;;;;5054165;28;20041;-71
2022/09/25 11:46:36;;;;;;;6.65;3.58;;;15.40;99.90;;;;;;5036555;28;20191;-73
2022/09/25 11:49:23;;;;;;;15.25;10.48;;;15.60;99.90;;;;;;5052897;28;20048;-72
2022/09/25 11:52:07;;;;;;;1.75;0.45;;;15.60;99.90;;;;;;5052835;28;20127;-72
2022/09/25 11:54:58;;;;;;;1.38;0.40;;;15.40;99.90;;;;;;5053101;28;20366;-71
2022/09/25 11:57:48;;;;;;;4.13;0.65;;;15.20;99.90;;;;;;5053842;28;20037;-73
2022/09/25 12:00:27;;;;;;;;;;;15.00;99.90;;;;;;5052301;28;20033;-72
2022/09/25 12:03:14;;;;;;;2.33;0.80;;;14.80;99.90;;;;;;5052998;28;19920;-74
2022/09/25 12:06:04;;;;;;;3.15;0.77;;;14.60;99.90;;;;;;5053867;28;20562;-70
2022/09/25 12:08:56;;;;;;;1.30;0.40;;;14.40;99.90;;;;;;5052587;28;20052;-70
2022/09/25 12:11:30;;;;;;;3.05;0.75;;;14.40;99.90;;;;;;5052452;28;20477;-71
2022/09/25 12:14:24;;;;;;;2.88;1.30;;;14.30;99.90;;;;;;5052418;28;20409;-72
2022/09/25 12:17:16;;;;;;;2.00;0.90;;;14.30;99.90;;;;;;5053718;28;20538;-72
2022/09/25 12:19:57;;;;;;;2.88;0.80;;;14.30;99.90;;;;;;5035411;28;20514;-73
2022/09/25 12:22:42;;;;;;;5.10;1.98;;;14.40;99.90;;;;;;5035649;28;20044;-72
2022/09/25 12:25:26;;;;;;;4.65;1.10;;;14.60;99.90;;;;;;5053442;28;20401;-72
2022/09/25 12:28:33;;;;;;;2.83;1.10;;;14.80;99.90;;;;;;5052490;28;20041;-72
2022/09/25 12:30:59;;;;;;;2.53;0.70;;;15.20;99.90;;;;;;5025968;28;20061;-72
2022/09/25 12:33:43;;;;;;;5.15;2.00;;;15.40;99.90;;;;;;5052134;28;20503;-72
2022/09/25 12:36:21;;;;;;;4.30;0.93;;;15.50;99.90;;;;;;5053396;28;20036;-72
2022/09/25 12:38:56;;;;;;;5.00;1.67;;;15.60;99.90;;;;;;5052206;28;20041;-73
2022/09/25 12:41:52;;;;;;;5.70;2.50;;;15.60;99.90;;;;;;5050839;28;20106;-72
2022/09/25 12:44:21;;;;;;;12.40;9.18;;;15.60;99.90;;;;;;5052095;28;20087;-73
2022/09/25 12:47:00;;;;;;;18.90;12.90;;;15.60;99.90;;;;;;5051770;28;20095;-73
2022/09/25 12:49:57;;;;;;;17.25;9.23;;;15.60;99.90;;;;;;5053063;28;20119;-71
2022/09/25 12:52:46;;;;;;;7.60;4.32;;;15.50;99.90;;;;;;5053021;28;20041;-73
2022/09/25 12:55:25;;;;;;;7.50;3.80;;;15.40;99.90;;;;;;5051600;28;20072;-72
2022/09/25 12:58:11;;;;;;;7.38;3.97;;;15.30;99.90;;;;;;5051772;28;20083;-72
2022/09/25 13:00:41;;;;;;;5.97;3.40;;;15.30;99.90;;;;;;5050725;28;20102;-71
2022/09/25 13:03:27;;;;;;;2.58;1.50;;;15.50;99.90;;;;;;5051201;28;20041;-71
2022/09/25 13:06:13;;;;;;;4.05;1.13;;;15.70;99.90;;;;;;5053004;28;20041;-71
2022/09/25 13:09:02;;;;;;;2.20;1.42;;;16.00;99.90;;;;;;5035146;28;20076;-71
2022/09/25 13:12:01;;;;;;;3.30;0.85;;;16.10;99.90;;;;;;5051761;28;20091;-72
2022/09/25 13:14:55;;;;;;;2.45;1.05;;;16.30;99.90;;;;;;5051611;28;20045;-70
2022/09/25 13:17:22;;;;;;;2.30;1.00;;;16.40;99.90;;;;;;5034898;28;20655;-71
2022/09/25 13:19:48;;;;;;;2.08;0.80;;;16.40;99.90;;;;;;5051574;28;20120;-71
2022/09/25 13:22:24;;;;;;;3.13;0.70;;;16.40;99.90;;;;;;5051769;28;20124;-71
2022/09/25 13:24:51;;;;;;;0.98;0.40;;;16.40;99.90;;;;;;5048893;28;20150;-71
2022/09/25 13:27:21;;;;;;;2.60;0.70;;;16.40;99.90;;;;;;5048611;28;20060;-69
2022/09/25 13:29:59;;;;;;;3.35;0.50;;;16.30;99.90;;;;;;5050765;28;20575;-70
2022/09/25 13:32:30;;;;;;;2.63;0.50;;;16.30;99.90;;;;;;5084795;28;20497;-70
2022/09/25 13:35:03;;;;;;;2.17;0.52;;;16.30;99.90;;;;;;5034651;28;20124;-72